createdAt,value
2017-08-19T00:00:48.955Z,57.55
2017-08-19T00:01:48.627Z,57.36
2017-08-19T00:02:48.929Z,57.36
2017-08-19T00:03:48.914Z,58.12
2017-08-19T00:04:48.899Z,58.41
2017-08-19T00:05:48.892Z,58.12
2017-08-19T00:06:48.560Z,58.51
2017-08-19T00:07:48.551Z,58.22
2017-08-19T00:08:48.531Z,57.84
2017-08-19T00:09:48.839Z,57.93
2017-08-19T00:10:48.507Z,58.12
2017-08-19T00:11:48.811Z,58.12
2017-08-19T00:12:48.795Z,58.32
2017-08-19T00:13:48.776Z,58.12
2017-08-19T00:14:48.763Z,58.12
2017-08-19T00:15:48.747Z,57.26
2017-08-19T00:16:48.425Z,57.75
2017-08-19T00:17:48.720Z,58.12
2017-08-19T00:18:48.715Z,58.12
2017-08-19T00:19:48.695Z,58.03
2017-08-19T00:20:48.372Z,58.22
2017-08-19T00:21:48.676Z,58.03
2017-08-19T00:22:48.657Z,58.22
2017-08-19T00:23:48.657Z,58.22
2017-08-19T00:24:48.630Z,58.22
2017-08-19T00:25:48.620Z,57.93
2017-08-19T00:26:48.602Z,58.32
2017-08-19T00:27:48.587Z,58.03
2017-08-19T00:28:48.578Z,58.61
2017-08-19T00:29:48.562Z,58.51
2017-08-19T00:30:48.548Z,58.32
2017-08-19T00:31:48.220Z,58.61
2017-08-19T00:32:48.521Z,58.03
2017-08-19T00:33:48.515Z,58.03
2017-08-19T00:34:48.490Z,58.22
2017-08-19T00:35:48.166Z,58.7
2017-08-19T00:36:48.468Z,57.55
2017-08-19T00:37:48.142Z,57.65
2017-08-19T00:38:48.144Z,57.75
2017-08-19T00:39:48.113Z,58.41
2017-08-19T00:40:48.103Z,58.22
2017-08-19T00:41:48.395Z,58.22
2017-08-19T00:42:48.384Z,58.03
2017-08-19T00:43:48.057Z,58.22
2017-08-19T00:44:48.046Z,58.61
2017-08-19T00:45:48.342Z,58.22
2017-08-19T00:46:48.327Z,58.22
2017-08-19T00:47:48.318Z,58.12
2017-08-19T00:48:48.314Z,58.32
2017-08-19T00:49:48.286Z,58.03
2017-08-19T00:50:47.962Z,58.61
2017-08-19T00:51:48.263Z,58.98
2017-08-19T00:52:48.135Z,58.51
2017-08-19T00:53:47.922Z,58.41
2017-08-19T00:54:47.908Z,58.51
2017-08-19T00:55:47.892Z,58.61
2017-08-19T00:56:48.188Z,58.51
2017-08-19T00:57:48.178Z,58.98
2017-08-19T00:58:48.164Z,59.84
2017-08-19T00:59:47.841Z,58.61
2017-08-19T01:00:47.821Z,59.18
2017-08-19T01:01:48.125Z,60.04
2017-08-19T01:02:47.797Z,60.04
2017-08-19T01:03:47.781Z,60.42
2017-08-19T01:04:48.084Z,60.3
2017-08-19T01:05:47.755Z,60.23
2017-08-19T01:06:47.746Z,60.61
2017-08-19T01:07:48.040Z,60.68
2017-08-19T01:08:47.716Z,60.9
2017-08-19T01:09:48.012Z,60.99
2017-08-19T01:10:47.998Z,61.76
2017-08-19T01:11:47.676Z,61.63
2017-08-19T01:12:47.659Z,61.95
2017-08-19T01:13:47.645Z,61.85
2017-08-19T01:14:47.948Z,61.54
2017-08-19T01:15:47.933Z,61.47
2017-08-19T01:16:47.915Z,62.24
2017-08-19T01:17:47.903Z,61.63
2017-08-19T01:18:47.889Z,62.01
2017-08-19T01:19:47.873Z,61.54
2017-08-19T01:20:47.865Z,62.21
2017-08-19T01:21:47.534Z,61.92
2017-08-19T01:22:47.522Z,62.11
2017-08-19T01:23:47.508Z,62.21
2017-08-19T01:24:47.808Z,62.4
2017-08-19T01:25:47.795Z,62.21
2017-08-19T01:26:47.777Z,61.92
2017-08-19T01:27:47.767Z,61.92
2017-08-19T01:28:47.755Z,62.3
2017-08-19T01:29:47.737Z,62.21
2017-08-19T01:30:47.417Z,62.11
2017-08-19T01:31:47.709Z,62.4
2017-08-19T01:32:47.693Z,61.92
2017-08-19T01:33:47.683Z,61.92
2017-08-19T01:34:47.670Z,62.3
2017-08-19T01:35:47.652Z,62.3
2017-08-19T01:36:47.678Z,62.21
2017-08-19T01:37:47.317Z,62.4
2017-08-19T01:38:47.609Z,62.3
2017-08-19T01:39:47.601Z,63.26
2017-08-19T01:40:47.270Z,62.97
2017-08-19T01:41:47.572Z,63.07
2017-08-19T01:42:47.554Z,63.16
2017-08-19T01:43:47.546Z,63.64
2017-08-19T01:44:47.215Z,63.54
2017-08-19T01:45:47.510Z,63.73
2017-08-19T01:46:47.517Z,63.83
2017-08-19T01:47:47.487Z,63.54
2017-08-19T01:48:47.472Z,63.54
2017-08-19T01:49:47.149Z,63.93
2017-08-19T01:50:47.446Z,63.83
2017-08-19T01:51:47.429Z,63.45
2017-08-19T01:52:47.420Z,63.73
2017-08-19T01:53:47.098Z,63.93
2017-08-19T01:54:47.387Z,63.83
2017-08-19T01:55:47.062Z,64.12
2017-08-19T01:56:47.359Z,64.59
2017-08-19T01:57:47.347Z,64.78
2017-08-19T01:58:47.022Z,64.59
2017-08-19T01:59:47.009Z,64.88
2017-08-19T02:00:47.303Z,64.69
2017-08-19T02:01:47.289Z,64.98
2017-08-19T02:02:47.014Z,64.78
2017-08-19T02:03:46.990Z,65.36
2017-08-19T02:04:46.953Z,65.07
2017-08-19T02:05:47.231Z,65.26
2017-08-19T02:06:46.905Z,65.84
2017-08-19T02:07:47.202Z,65.55
2017-08-19T02:08:47.189Z,65.84
2017-08-19T02:09:47.176Z,65.07
2017-08-19T02:10:46.850Z,66.22
2017-08-19T02:11:47.148Z,65.74
2017-08-19T02:12:47.136Z,66.22
2017-08-19T02:13:47.119Z,66.6
2017-08-19T02:14:47.109Z,66.22
2017-08-19T02:15:47.103Z,66.89
2017-08-19T02:16:47.078Z,66.99
2017-08-19T02:17:46.753Z,67.27
2017-08-19T02:18:47.050Z,66.99
2017-08-19T02:19:47.039Z,66.89
2017-08-19T02:20:46.708Z,67.55
2017-08-19T02:21:46.691Z,67.08
2017-08-19T02:22:46.994Z,67.18
2017-08-19T02:23:46.665Z,67.18
2017-08-19T02:24:46.969Z,67.24
2017-08-19T02:25:46.948Z,67.43
2017-08-19T02:26:46.936Z,67.52
2017-08-19T02:27:46.922Z,67.71
2017-08-19T02:28:46.907Z,67.71
2017-08-19T02:29:46.946Z,67.81
2017-08-19T02:30:46.888Z,67.91
2017-08-19T02:31:46.865Z,67.71
2017-08-19T02:32:46.852Z,67.52
2017-08-19T02:33:46.834Z,67.91
2017-08-19T02:34:46.824Z,68
2017-08-19T02:35:46.807Z,68.19
2017-08-19T02:36:46.486Z,68.48
2017-08-19T02:37:46.787Z,68.76
2017-08-19T02:38:46.766Z,68.76
2017-08-19T02:39:46.436Z,68.76
2017-08-19T02:40:46.427Z,68.57
2017-08-19T02:41:46.723Z,68.38
2017-08-19T02:42:46.710Z,68.96
2017-08-19T02:43:46.384Z,69.34
2017-08-19T02:44:46.684Z,69.43
2017-08-19T02:45:46.358Z,69.53
2017-08-19T02:46:46.654Z,69.24
2017-08-19T02:47:46.637Z,69.34
2017-08-19T02:48:46.315Z,68.57
2017-08-19T02:49:46.607Z,69.43
2017-08-19T02:50:46.594Z,69.34
2017-08-19T02:51:46.577Z,69.24
2017-08-19T02:52:46.566Z,69.62
2017-08-19T02:53:46.557Z,69.72
2017-08-19T02:54:46.225Z,69.72
2017-08-19T02:55:46.209Z,69.62
2017-08-19T02:56:46.509Z,69.24
2017-08-19T02:57:46.492Z,69.43
2017-08-19T02:58:46.480Z,69.34
2017-08-19T02:59:46.155Z,69.15
2017-08-19T03:00:46.451Z,69.91
2017-08-19T03:01:46.435Z,69.72
2017-08-19T03:02:46.431Z,69.91
2017-08-19T03:03:46.098Z,69.62
2017-08-19T03:04:46.082Z,69.82
2017-08-19T03:05:46.381Z,69.53
2017-08-19T03:06:46.368Z,70.1
2017-08-19T03:07:46.039Z,70.1
2017-08-19T03:08:46.025Z,69.72
2017-08-19T03:09:46.323Z,69.91
2017-08-19T03:10:46.320Z,69.82
2017-08-19T03:11:45.979Z,69.53
2017-08-19T03:12:45.964Z,70.2
2017-08-19T03:13:46.262Z,70.67
2017-08-19T03:14:46.253Z,70.29
2017-08-19T03:15:46.232Z,71.06
2017-08-19T03:16:45.908Z,70.87
2017-08-19T03:17:46.204Z,70.96
2017-08-19T03:18:45.876Z,71.06
2017-08-19T03:19:45.864Z,71.44
2017-08-19T03:20:46.163Z,70.96
2017-08-19T03:21:46.147Z,71.06
2017-08-19T03:22:45.818Z,71.34
2017-08-19T03:23:46.122Z,70.87
2017-08-19T03:24:46.121Z,69.24
2017-08-19T03:25:46.090Z,70.2
2017-08-19T03:26:46.078Z,70.29
2017-08-19T03:27:45.754Z,70.58
2017-08-19T03:28:46.045Z,69.72
2017-08-19T03:29:46.033Z,69.62
2017-08-19T03:30:46.019Z,70.77
2017-08-19T03:31:46.005Z,70.58
2017-08-19T03:32:45.992Z,70.39
2017-08-19T03:33:45.662Z,70.67
2017-08-19T03:34:45.964Z,70.1
2017-08-19T03:35:45.946Z,71.15
2017-08-19T03:36:45.928Z,70.48
2017-08-19T03:37:45.916Z,71.06
2017-08-19T03:38:45.589Z,70.67
2017-08-19T03:39:45.912Z,71.34
2017-08-19T03:40:45.871Z,71.44
2017-08-19T03:41:45.856Z,70.87
2017-08-19T03:42:45.529Z,70.1
2017-08-19T03:43:45.832Z,70.67
2017-08-19T03:44:45.505Z,71.44
2017-08-19T03:45:45.492Z,71.06
2017-08-19T03:46:45.475Z,70.96
2017-08-19T03:47:45.467Z,71.72
2017-08-19T03:48:45.756Z,71.63
2017-08-19T03:49:45.943Z,71.82
2017-08-19T03:50:45.416Z,71.15
2017-08-19T03:51:45.710Z,71.82
2017-08-19T03:52:45.390Z,71.92
2017-08-19T03:53:45.683Z,71.72
2017-08-19T03:54:45.680Z,72.58
2017-08-19T03:55:45.342Z,71.92
2017-08-19T03:56:45.639Z,72.2
2017-08-19T03:57:45.630Z,71.72
2017-08-19T03:58:45.616Z,71.92
2017-08-19T03:59:45.285Z,71.44
2017-08-19T04:00:45.583Z,71.72
2017-08-19T04:01:45.565Z,71.82
2017-08-19T04:02:45.241Z,72.49
2017-08-19T04:03:45.539Z,71.63
2017-08-19T04:04:45.211Z,71.72
2017-08-19T04:05:45.197Z,71.92
2017-08-19T04:06:45.499Z,71.44
2017-08-19T04:07:45.167Z,71.82
2017-08-19T04:08:45.469Z,71.92
2017-08-19T04:09:45.453Z,71.82
2017-08-19T04:10:45.437Z,71.63
2017-08-19T04:11:45.423Z,71.72
2017-08-19T04:12:45.407Z,71.92
2017-08-19T04:13:45.393Z,72.58
2017-08-19T04:14:45.381Z,72.49
2017-08-19T04:15:45.054Z,72.49
2017-08-19T04:16:45.353Z,71.92
2017-08-19T04:17:45.333Z,72.49
2017-08-19T04:18:45.007Z,72.3
2017-08-19T04:19:45.002Z,72.11
2017-08-19T04:20:45.290Z,71.92
2017-08-19T04:21:44.964Z,71.53
2017-08-19T04:22:44.950Z,71.92
2017-08-19T04:23:45.248Z,71.53
2017-08-19T04:24:44.921Z,71.44
2017-08-19T04:25:44.911Z,71.63
2017-08-19T04:26:44.893Z,71.63
2017-08-19T04:27:45.204Z,71.63
2017-08-19T04:28:45.173Z,72.2
2017-08-19T04:29:44.848Z,71.72
2017-08-19T04:30:45.151Z,71.53
2017-08-19T04:31:45.134Z,70.96
2017-08-19T04:32:45.115Z,71.15
2017-08-19T04:33:45.101Z,70.67
2017-08-19T04:34:44.774Z,70.96
2017-08-19T04:35:45.074Z,70.67
2017-08-19T04:36:45.060Z,69.91
2017-08-19T04:37:45.045Z,70.87
2017-08-19T04:38:45.032Z,70.2
2017-08-19T04:39:44.701Z,70.96
2017-08-19T04:40:45.001Z,70.1
2017-08-19T04:41:44.988Z,69.72
2017-08-19T04:42:44.661Z,69.82
2017-08-19T04:43:44.648Z,70.29
2017-08-19T04:44:44.943Z,69.62
2017-08-19T04:45:44.929Z,70.1
2017-08-19T04:46:44.914Z,70.1
2017-08-19T04:47:44.896Z,69.82
2017-08-19T04:48:44.885Z,70.67
2017-08-19T04:49:44.868Z,70.87
2017-08-19T04:50:44.863Z,70.39
2017-08-19T04:51:44.842Z,70.87
2017-08-19T04:52:44.515Z,70.87
2017-08-19T04:53:44.812Z,71.34
2017-08-19T04:54:44.796Z,71.15
2017-08-19T04:55:44.781Z,71.34
2017-08-19T04:56:44.775Z,71.15
2017-08-19T04:57:44.439Z,71.63
2017-08-19T04:58:44.429Z,71.72
2017-08-19T04:59:44.725Z,71.53
2017-08-19T05:00:44.708Z,71.92
2017-08-19T05:01:44.387Z,71.72
2017-08-19T05:02:44.680Z,71.53
2017-08-19T05:03:44.671Z,71.34
2017-08-19T05:04:44.652Z,72.49
2017-08-19T05:05:44.330Z,72.87
2017-08-19T05:06:44.311Z,72.78
2017-08-19T05:07:44.607Z,73.54
2017-08-19T05:08:44.280Z,73.35
2017-08-19T05:09:44.267Z,74.21
2017-08-19T05:10:44.253Z,73.92
2017-08-19T05:11:44.550Z,73.73
2017-08-19T05:12:44.226Z,74.05
2017-08-19T05:13:44.521Z,74.49
2017-08-19T05:14:44.516Z,73.58
2017-08-19T05:15:44.182Z,73.77
2017-08-19T05:16:44.167Z,74.73
2017-08-19T05:17:44.761Z,75.01
2017-08-19T05:18:44.138Z,74.63
2017-08-19T05:19:44.465Z,74.63
2017-08-19T05:20:44.108Z,75.1
2017-08-19T05:21:44.410Z,75.59
2017-08-19T05:22:44.393Z,75.49
2017-08-19T05:23:44.383Z,75.87
2017-08-19T05:24:44.362Z,75.3
2017-08-19T05:25:44.351Z,76.25
2017-08-19T05:26:44.385Z,76.45
2017-08-19T05:27:44.319Z,76.45
2017-08-19T05:28:44.306Z,76.45
2017-08-19T05:29:43.979Z,76.54
2017-08-19T05:30:44.277Z,77.01
2017-08-19T05:31:43.949Z,77.11
2017-08-19T05:32:44.268Z,76.92
2017-08-19T05:33:43.926Z,77.5
2017-08-19T05:34:44.260Z,77.78
2017-08-19T05:35:44.210Z,77.78
2017-08-19T05:36:44.187Z,77.97
2017-08-19T05:37:44.187Z,77.78
2017-08-19T05:38:44.163Z,77.87
2017-08-19T05:39:44.151Z,78.26
2017-08-19T05:40:43.836Z,79.02
2017-08-19T05:41:44.120Z,80.36
2017-08-19T05:42:44.105Z,80.46
2017-08-19T05:43:44.093Z,80.65
2017-08-19T05:44:44.080Z,81.32
2017-08-19T05:45:44.063Z,80.65
2017-08-19T05:46:43.737Z,80.07
2017-08-19T05:47:44.040Z,81.51
2017-08-19T05:48:44.019Z,81.7
2017-08-19T05:49:43.892Z,81.32
2017-08-19T05:50:44.009Z,81.7
2017-08-19T05:51:43.981Z,81.93
2017-08-19T05:52:43.964Z,82.84
2017-08-19T05:53:43.637Z,83.37
2017-08-19T05:54:43.625Z,82.41
2017-08-19T05:55:43.975Z,84.23
2017-08-19T05:56:43.594Z,83.08
2017-08-19T05:57:43.899Z,83.56
2017-08-19T05:58:43.880Z,83.46
2017-08-19T05:59:43.868Z,85.75
2017-08-19T06:00:43.854Z,85.57
2017-08-19T06:01:43.843Z,85.47
2017-08-19T06:02:43.825Z,84.61
2017-08-19T06:03:43.819Z,85.18
2017-08-19T06:04:43.798Z,84.89
2017-08-19T06:05:43.780Z,84.8
2017-08-19T06:06:43.778Z,85.57
2017-08-19T06:07:43.769Z,86.14
2017-08-19T06:08:43.746Z,88.91
2017-08-19T06:09:43.431Z,89.96
2017-08-19T06:10:43.400Z,88.62
2017-08-19T06:11:43.698Z,89.1
2017-08-19T06:12:43.695Z,87.66
2017-08-19T06:13:43.671Z,89.58
2017-08-19T06:14:43.344Z,89.39
2017-08-19T06:15:43.646Z,90.25
2017-08-19T06:16:43.641Z,90.06
2017-08-19T06:17:43.313Z,91.39
2017-08-19T06:18:43.606Z,92.78
2017-08-19T06:19:43.590Z,93.64
2017-08-19T06:20:43.264Z,92.49
2017-08-19T06:21:43.565Z,92.59
2017-08-19T06:22:43.236Z,93.84
2017-08-19T06:23:43.226Z,93.35
2017-08-19T06:24:43.523Z,92.88
2017-08-19T06:25:43.515Z,94.02
2017-08-19T06:26:43.494Z,93.84
2017-08-19T06:27:43.481Z,94.7
2017-08-19T06:28:43.156Z,95.84
2017-08-19T06:29:43.451Z,95.17
2017-08-19T06:30:43.444Z,95.94
2017-08-19T06:31:43.429Z,95.94
2017-08-19T06:32:43.098Z,95.75
2017-08-19T06:33:43.395Z,95.98
2017-08-19T06:34:43.384Z,95.36
2017-08-19T06:35:43.368Z,95.46
2017-08-19T06:36:43.357Z,97.75
2017-08-19T06:37:43.341Z,96.51
2017-08-19T06:38:43.330Z,96.75
2017-08-19T06:39:43.318Z,96.56
2017-08-19T06:40:43.306Z,96.94
2017-08-19T06:41:43.292Z,96.66
2017-08-19T06:42:43.284Z,97.52
2017-08-19T06:43:43.261Z,95.79
2017-08-19T06:44:42.934Z,96.66
2017-08-19T06:45:42.920Z,95.22
2017-08-19T06:46:42.910Z,98.19
2017-08-19T06:47:43.208Z,99.05
2017-08-19T06:48:42.891Z,98.86
2017-08-19T06:49:43.181Z,98.71
2017-08-19T06:50:43.169Z,99.99
2017-08-19T06:51:42.844Z,99.99
2017-08-19T06:52:42.830Z,99.99
2017-08-19T06:53:42.819Z,99.99
2017-08-19T06:54:43.146Z,99.99
2017-08-19T06:55:42.792Z,99.99
2017-08-19T06:56:42.777Z,99.99
2017-08-19T06:57:43.081Z,99.99
2017-08-19T06:58:42.755Z,99.99
2017-08-19T06:59:42.749Z,99.99
2017-08-19T07:00:42.733Z,99.99
2017-08-19T07:01:42.743Z,99.99
2017-08-19T07:02:43.015Z,99.99
2017-08-19T07:03:43.002Z,99.99
2017-08-19T07:04:42.991Z,99.99
2017-08-19T07:05:42.667Z,99.99
2017-08-19T07:06:42.650Z,99.99
2017-08-19T07:07:42.642Z,99.99
2017-08-19T07:08:42.943Z,99.99
2017-08-19T07:09:42.932Z,99.99
2017-08-19T07:10:42.917Z,99.99
2017-08-19T07:11:42.909Z,99.99
2017-08-19T07:12:42.892Z,99.99
2017-08-19T07:13:42.571Z,99.99
2017-08-19T07:14:42.873Z,99.99
2017-08-19T07:15:42.861Z,99.99
2017-08-19T07:16:42.849Z,99.99
2017-08-19T07:17:42.537Z,99.99
2017-08-19T07:18:42.510Z,99.99
2017-08-19T07:19:42.500Z,99.99
2017-08-19T07:20:42.800Z,99.99
2017-08-19T07:21:42.785Z,99.99
2017-08-19T07:22:42.463Z,99.99
2017-08-19T07:23:42.763Z,99.99
2017-08-19T07:24:42.750Z,99.99
2017-08-19T07:25:42.427Z,99.99
2017-08-19T07:26:42.420Z,99.99
2017-08-19T07:27:42.714Z,99.99
2017-08-19T07:28:42.394Z,99.99
2017-08-19T07:29:42.383Z,99.99
2017-08-19T07:30:42.371Z,99.99
2017-08-19T07:31:42.359Z,99.99
2017-08-19T07:32:42.347Z,99.99
2017-08-19T07:33:42.335Z,99.99
2017-08-19T07:34:42.781Z,99.99
2017-08-19T07:35:42.322Z,99.99
2017-08-19T07:36:42.623Z,99.99
2017-08-19T07:37:42.366Z,99.99
2017-08-19T07:38:42.277Z,99.99
2017-08-19T07:39:42.579Z,99.99
2017-08-19T07:40:42.561Z,99.99
2017-08-19T07:41:42.242Z,99.99
2017-08-19T07:42:42.544Z,99.99
2017-08-19T07:43:42.530Z,99.99
2017-08-19T07:44:42.206Z,99.99
2017-08-19T07:45:42.512Z,99.99
2017-08-19T07:46:42.493Z,99.99
2017-08-19T07:47:42.486Z,99.99
2017-08-19T07:48:42.481Z,99.99
2017-08-19T07:49:42.662Z,99.99
2017-08-19T07:50:42.447Z,99.99
2017-08-19T07:51:42.436Z,99.99
2017-08-19T07:52:42.432Z,99.99
2017-08-19T07:53:42.434Z,99.99
2017-08-19T07:54:42.091Z,99.99
2017-08-19T07:55:42.078Z,99.99
2017-08-19T07:56:42.068Z,99.99
2017-08-19T07:57:42.400Z,99.99
2017-08-19T07:58:42.050Z,99.99
2017-08-19T07:59:42.346Z,99.99
2017-08-19T08:00:42.029Z,99.99
2017-08-19T08:01:42.332Z,99.99
2017-08-19T08:02:42.005Z,99.99
2017-08-19T08:03:41.989Z,99.99
2017-08-19T08:04:41.979Z,99.99
2017-08-19T08:05:41.968Z,99.99
2017-08-19T08:06:42.265Z,99.99
2017-08-19T08:07:42.256Z,99.99
2017-08-19T08:08:41.934Z,99.99
2017-08-19T08:09:42.235Z,99.99
2017-08-19T08:10:42.225Z,99.99
2017-08-19T08:11:42.219Z,99.99
2017-08-19T08:12:41.890Z,99.99
2017-08-19T08:13:42.198Z,99.99
2017-08-19T08:14:41.868Z,99.99
2017-08-19T08:15:41.856Z,99.99
2017-08-19T08:18:10.849Z,99.99
2017-08-19T08:19:11.176Z,99.99
2017-08-19T08:20:11.137Z,99.99
2017-08-19T08:21:10.824Z,99.99
2017-08-19T08:22:10.807Z,99.99
2017-08-19T08:23:11.102Z,99.99
2017-08-19T08:24:11.089Z,99.99
2017-08-19T08:25:10.770Z,99.99
2017-08-19T09:12:33.531Z,99.99
2017-08-19T09:13:33.145Z,99.99
2017-08-19T09:14:33.180Z,99.99
2017-08-19T09:15:33.416Z,99.99
2017-08-19T09:16:33.404Z,99.99
2017-08-19T09:17:33.100Z,99.99
2017-08-19T09:18:33.379Z,99.99
2017-08-19T09:19:33.371Z,99.99
2017-08-19T09:20:33.353Z,99.99
2017-08-19T09:21:33.340Z,99.99
2017-08-19T09:22:33.328Z,99.99
2017-08-19T09:23:33.008Z,99.99
2017-08-19T09:24:32.992Z,99.99
2017-08-19T09:25:33.295Z,99.99
2017-08-19T09:26:32.970Z,99.99
2017-08-19T09:27:33.275Z,99.99
2017-08-19T09:28:32.962Z,99.99
2017-08-19T09:29:32.964Z,99.99
2017-08-19T09:30:32.952Z,99.99
2017-08-19T09:31:33.231Z,99.99
2017-08-19T09:32:33.223Z,99.99
2017-08-19T09:33:33.836Z,99.99
2017-08-19T09:34:33.203Z,99.99
2017-08-19T09:35:33.191Z,99.99
2017-08-19T09:36:33.187Z,99.99
2017-08-19T09:37:32.853Z,99.99
2017-08-19T09:38:33.158Z,99.99
2017-08-19T09:39:32.840Z,99.99
2017-08-19T09:40:33.146Z,99.99
2017-08-19T09:41:33.129Z,99.99
2017-08-19T09:42:33.119Z,99.99
2017-08-19T09:43:32.794Z,99.99
2017-08-19T09:44:33.106Z,99.99
2017-08-19T09:45:33.094Z,99.99
2017-08-19T09:46:32.768Z,99.99
2017-08-19T09:47:33.071Z,99.99
2017-08-19T09:48:33.061Z,99.99
2017-08-19T09:49:32.935Z,99.99
2017-08-19T09:50:33.042Z,99.99
2017-08-19T09:51:33.032Z,99.99
2017-08-19T09:52:33.025Z,99.99
2017-08-19T09:53:33.015Z,99.99
2017-08-19T09:54:33.004Z,99.99
2017-08-19T09:55:33.000Z,99.99
2017-08-19T09:56:32.984Z,99.99
2017-08-19T09:57:32.662Z,99.99
2017-08-19T09:58:32.656Z,99.99
2017-08-19T09:59:32.647Z,99.99
2017-08-19T10:00:32.943Z,99.99
2017-08-19T10:01:32.624Z,99.99
2017-08-19T10:02:32.927Z,99.99
2017-08-19T10:03:32.939Z,99.99
2017-08-19T10:04:32.912Z,99.99
2017-08-19T10:05:32.900Z,99.99
2017-08-19T10:06:32.886Z,99.99
2017-08-19T10:07:32.567Z,99.99
2017-08-19T10:08:32.556Z,99.99
2017-08-19T10:09:32.858Z,99.99
2017-08-19T10:10:32.848Z,99.99
2017-08-19T10:11:32.839Z,99.99
2017-08-19T10:12:32.517Z,99.99
2017-08-19T10:13:32.822Z,99.99
2017-08-19T10:14:32.812Z,99.99
2017-08-19T10:15:32.801Z,99.99
2017-08-19T10:16:32.792Z,99.99
2017-08-19T10:17:32.476Z,99.99
2017-08-19T10:18:32.773Z,99.99
2017-08-19T10:19:32.768Z,99.99
2017-08-19T10:20:32.769Z,99.99
2017-08-19T10:21:32.748Z,99.99
2017-08-19T10:22:32.426Z,99.99
2017-08-19T10:23:32.746Z,99.99
2017-08-19T10:24:32.729Z,99.99
2017-08-19T10:25:32.709Z,99.99
2017-08-19T10:26:32.392Z,99.99
2017-08-19T10:27:32.692Z,99.99
2017-08-19T10:28:32.683Z,99.99
2017-08-19T10:29:32.363Z,99.99
2017-08-19T10:30:32.666Z,99.99
2017-08-19T10:31:32.656Z,99.99
2017-08-19T10:32:32.654Z,99.99
2017-08-19T10:33:32.640Z,99.99
2017-08-19T10:34:32.641Z,99.99
2017-08-19T10:35:32.625Z,99.99
2017-08-19T10:36:32.299Z,99.99
2017-08-19T10:37:32.285Z,99.99
2017-08-19T10:38:32.274Z,99.99
2017-08-19T10:39:32.577Z,99.99
2017-08-19T10:40:32.254Z,99.99
2017-08-19T10:41:32.243Z,99.99
2017-08-19T10:42:32.547Z,99.99
2017-08-19T10:43:32.533Z,99.99
2017-08-19T10:44:32.528Z,99.99
2017-08-19T10:45:32.514Z,99.99
2017-08-19T10:46:32.191Z,99.99
2017-08-19T10:47:32.179Z,99.99
2017-08-19T10:48:32.485Z,99.99
2017-08-19T10:49:32.474Z,99.99
2017-08-19T10:50:32.669Z,99.99
2017-08-19T10:51:32.458Z,99.99
2017-08-19T10:52:32.441Z,99.99
2017-08-19T10:53:32.433Z,99.99
2017-08-19T10:54:32.423Z,99.99
2017-08-19T10:55:32.414Z,99.99
2017-08-19T10:56:32.409Z,99.99
2017-08-19T10:57:32.094Z,99.99
2017-08-19T10:58:32.392Z,99.99
2017-08-19T10:59:32.067Z,99.99
2017-08-19T11:00:32.371Z,99.99
2017-08-19T11:01:32.361Z,99.99
2017-08-19T11:02:32.039Z,99.99
2017-08-19T11:03:32.342Z,99.99
2017-08-19T11:04:32.023Z,99.99
2017-08-19T11:05:32.013Z,99.99
2017-08-19T11:06:32.010Z,99.99
2017-08-19T11:07:32.365Z,99.99
2017-08-19T11:08:32.319Z,99.99
2017-08-19T11:09:32.300Z,99.99
2017-08-19T11:10:32.285Z,99.99
2017-08-19T11:11:31.965Z,99.99
2017-08-19T11:12:31.958Z,99.99
2017-08-19T11:13:32.267Z,99.99
2017-08-19T11:14:31.945Z,99.99
2017-08-19T11:15:32.254Z,99.99
2017-08-19T11:16:32.249Z,99.99
2017-08-19T11:17:32.245Z,99.99
2017-08-19T11:18:32.233Z,99.99
2017-08-19T11:19:31.911Z,99.99
2017-08-19T11:20:32.239Z,99.99
2017-08-19T11:21:31.912Z,99.99
2017-08-19T11:22:31.901Z,95.93
2017-08-19T11:23:32.210Z,95.4
2017-08-19T11:24:31.894Z,96.61
2017-08-19T11:25:32.206Z,97.09
2017-08-19T11:26:31.891Z,96.66
2017-08-19T11:27:31.885Z,99.99
2017-08-19T11:28:32.190Z,99.99
2017-08-19T11:29:31.877Z,99.99
2017-08-19T11:30:32.188Z,99.99
2017-08-19T11:31:32.185Z,99.99
2017-08-19T11:32:31.863Z,99.99
2017-08-19T11:33:31.867Z,99.99
2017-08-19T11:34:31.852Z,99.99
2017-08-19T11:35:32.164Z,99.99
2017-08-19T11:36:32.162Z,99.99
2017-08-19T11:37:32.154Z,99.99
2017-08-19T11:38:32.145Z,99.99
2017-08-19T11:39:32.143Z,99.99
2017-08-19T11:40:32.143Z,99.99
2017-08-19T11:41:31.819Z,99.99
2017-08-19T11:42:31.817Z,99.99
2017-08-19T11:43:32.123Z,99.99
2017-08-19T11:44:32.117Z,99.99
2017-08-19T11:45:31.812Z,99.99
2017-08-19T11:46:32.106Z,99.99
2017-08-19T11:47:31.783Z,99.99
2017-08-19T11:48:31.792Z,99.99
2017-08-19T11:49:32.280Z,99.99
2017-08-19T11:50:31.812Z,99.99
2017-08-19T11:51:31.753Z,99.99
2017-08-19T11:52:32.056Z,99.99
2017-08-19T11:53:32.053Z,99.99
2017-08-19T11:54:31.727Z,99.99
2017-08-19T11:55:32.034Z,99.99
2017-08-19T11:56:32.033Z,99.99
2017-08-19T11:57:32.017Z,99.99
2017-08-19T11:58:31.844Z,99.99
2017-08-19T11:59:31.689Z,99.99
2017-08-19T12:00:31.992Z,99.99
2017-08-19T12:01:31.982Z,99.99
2017-08-19T12:02:31.972Z,99.99
2017-08-19T12:03:31.964Z,99.99
2017-08-19T12:04:31.954Z,99.99
2017-08-19T12:05:31.997Z,99.99
2017-08-19T12:06:31.943Z,99.99
2017-08-19T12:07:31.632Z,99.99
2017-08-19T12:08:31.930Z,99.99
2017-08-19T12:09:31.612Z,99.99
2017-08-19T12:10:31.602Z,99.99
2017-08-19T12:11:31.596Z,99.99
2017-08-19T12:12:31.905Z,99.21
2017-08-19T12:13:31.904Z,99.99
2017-08-19T12:14:31.581Z,92.55
2017-08-19T12:15:31.899Z,92.79
2017-08-19T12:16:31.906Z,90.75
2017-08-19T12:17:31.574Z,89.59
2017-08-19T12:18:31.571Z,91.24
2017-08-19T12:19:31.884Z,92.98
2017-08-19T12:20:31.881Z,89.06
2017-08-19T12:21:31.882Z,88.04
2017-08-19T12:22:31.571Z,87.95
2017-08-19T12:23:31.887Z,86.01
2017-08-19T12:24:31.882Z,86.1
2017-08-19T12:25:31.568Z,83.34
2017-08-19T12:26:31.882Z,82.7
2017-08-19T12:27:31.881Z,83.58
2017-08-19T12:28:32.087Z,82.41
2017-08-19T12:29:31.569Z,82.55
2017-08-19T12:30:31.885Z,79.16
2017-08-19T12:31:31.887Z,82.45
2017-08-19T12:32:31.899Z,78.19
2017-08-19T12:33:31.888Z,80.36
2017-08-19T12:34:31.601Z,78.33
2017-08-19T12:35:31.891Z,79.04
2017-08-19T12:36:31.582Z,79
2017-08-19T12:37:31.902Z,78.87
2017-08-19T12:38:31.586Z,80.87
2017-08-19T12:39:31.589Z,81.4
2017-08-19T12:40:31.902Z,84.17
2017-08-19T12:41:31.594Z,84.86
2017-08-19T12:42:31.618Z,87.81
2017-08-19T12:43:31.595Z,91.3
2017-08-19T12:44:31.906Z,93.76
2017-08-19T12:45:31.595Z,96.22
2017-08-19T12:46:31.907Z,99.64
2017-08-19T12:47:31.588Z,99.99
2017-08-19T12:48:31.599Z,99.99
2017-08-19T12:49:31.581Z,99.99
2017-08-19T12:50:31.893Z,99.99
2017-08-19T12:51:31.577Z,99.99
2017-08-19T12:52:31.886Z,99.99
2017-08-19T12:53:31.619Z,99.99
2017-08-19T12:54:31.569Z,99.99
2017-08-19T12:55:31.927Z,99.99
2017-08-19T12:56:31.899Z,99.99
2017-08-19T12:57:31.553Z,99.99
2017-08-19T12:58:31.865Z,99.99
2017-08-19T12:59:31.855Z,99.99
2017-08-19T13:00:31.546Z,99.99
2017-08-19T13:01:31.950Z,99.99
2017-08-19T13:02:31.540Z,99.99
2017-08-19T13:03:31.827Z,99.99
2017-08-19T13:04:31.824Z,99.99
2017-08-19T13:05:31.504Z,99.99
2017-08-19T13:06:31.806Z,99.99
2017-08-19T13:07:31.491Z,99.99
2017-08-19T13:08:31.797Z,99.99
2017-08-19T13:09:31.787Z,99.99
2017-08-19T13:10:31.515Z,99.99
2017-08-19T13:11:31.463Z,99.99
2017-08-19T13:12:31.770Z,99.99
2017-08-19T13:13:31.444Z,99.99
2017-08-19T13:14:31.437Z,99.99
2017-08-19T13:15:31.740Z,99.99
2017-08-19T13:16:31.418Z,99.99
2017-08-19T13:17:31.407Z,99.99
2017-08-19T13:18:31.717Z,99.99
2017-08-19T13:19:31.706Z,99.99
2017-08-19T13:20:31.702Z,99.99
2017-08-19T13:21:31.377Z,99.99
2017-08-19T13:22:31.683Z,99.99
2017-08-19T13:23:31.719Z,99.99
2017-08-19T13:24:31.356Z,99.99
2017-08-19T13:25:31.349Z,99.99
2017-08-19T13:26:31.698Z,99.99
2017-08-19T13:27:31.319Z,99.99
2017-08-19T13:28:31.320Z,99.99
2017-08-19T13:29:31.302Z,99.99
2017-08-19T13:30:31.612Z,99.99
2017-08-19T13:31:31.603Z,99.99
2017-08-19T13:32:31.281Z,99.99
2017-08-19T13:33:31.585Z,99.99
2017-08-19T13:34:31.273Z,99.99
2017-08-19T13:35:31.572Z,99.99
2017-08-19T13:36:31.559Z,99.99
2017-08-19T13:37:31.554Z,99.99
2017-08-19T13:38:31.242Z,99.99
2017-08-19T13:39:31.223Z,99.99
2017-08-19T13:40:31.281Z,99.99
2017-08-19T13:41:31.522Z,99.99
2017-08-19T13:42:31.537Z,99.99